createdAt,value
2023-02-08T00:01:10.399Z,100188.84
2023-02-08T00:05:12.622Z,100181.28
2023-02-08T00:09:14.782Z,100179.88
2023-02-08T00:13:16.869Z,100177.03
2023-02-08T00:17:18.847Z,100184.38
2023-02-08T00:21:20.898Z,100181.75
2023-02-08T00:25:23.020Z,100186.09
2023-02-08T00:29:25.092Z,100191.09
2023-02-08T00:33:27.676Z,100194.38
2023-02-08T00:37:29.643Z,100195.81
2023-02-08T00:41:31.755Z,100192.81
2023-02-08T00:45:34.112Z,100192.59
2023-02-08T00:49:36.646Z,100199.53
2023-02-08T00:53:39.488Z,100190.13
2023-02-08T00:57:41.644Z,100195.31
2023-02-08T01:01:45.751Z,100198.31
2023-02-08T01:05:47.931Z,100193.44
2023-02-08T01:09:50.003Z,100195.19
2023-02-08T01:13:54.446Z,100194.53
2023-02-08T01:17:56.736Z,100187.97
2023-02-08T01:21:58.798Z,100184.16
2023-02-08T01:26:01.059Z,100182.50
2023-02-08T01:30:04.078Z,100183.47
2023-02-08T01:34:07.498Z,100184.63
2023-02-08T01:38:09.820Z,100175.84
2023-02-08T01:42:15.878Z,100168.97
2023-02-08T01:46:19.393Z,100173.34
2023-02-08T01:50:22.970Z,100165.16
2023-02-08T01:54:27.735Z,100167.63
2023-02-08T01:58:31.184Z,100181.81
2023-02-08T02:02:34.077Z,100180.84
2023-02-08T02:06:40.411Z,100179.72
2023-02-08T02:10:43.738Z,100178.09
2023-02-08T02:14:46.469Z,100186.06
2023-02-08T02:18:48.876Z,100179.63
2023-02-08T02:22:51.798Z,100179.22
2023-02-08T02:27:12.513Z,100175.38
2023-02-08T02:31:42.938Z,100171.56
2023-02-08T02:35:50.851Z,100178.44
2023-02-08T02:40:18.669Z,100174.19
2023-02-08T02:44:36.892Z,100160.84
2023-02-08T02:48:42.140Z,100163.84
2023-02-08T02:52:52.190Z,100145.47
2023-02-08T02:56:56.795Z,100148.41
2023-02-08T03:00:59.684Z,100152.31
2023-02-08T03:05:01.756Z,100160.34
2023-02-08T03:09:18.032Z,100162.41
2023-02-08T03:13:21.141Z,100155.38
2023-02-08T03:17:35.488Z,100153.47
2023-02-08T03:21:37.411Z,100153.13
2023-02-08T03:25:51.966Z,100154.00
2023-02-08T03:29:57.243Z,100153.50
2023-02-08T03:34:02.354Z,100148.78
2023-02-08T03:38:14.913Z,100150.91
2023-02-08T03:42:22.098Z,100148.69
2023-02-08T03:46:53.451Z,100150.06
2023-02-08T03:50:57.133Z,100146.81
2023-02-08T03:55:02.320Z,100135.81
2023-02-08T03:59:12.389Z,100139.59
2023-02-08T04:03:23.170Z,100141.06
2023-02-08T04:07:26.968Z,100133.81
2023-02-08T04:11:30.343Z,100130.78
2023-02-08T04:15:32.978Z,100136.69
2023-02-08T04:19:35.138Z,100128.34
2023-02-08T04:23:37.231Z,100123.84
2023-02-08T04:27:39.704Z,100122.75
2023-02-08T04:31:42.029Z,100125.34
2023-02-08T04:35:44.256Z,100115.72
2023-02-08T04:39:46.388Z,100115.28
2023-02-08T04:43:48.442Z,100111.19
2023-02-08T04:47:50.477Z,100108.41
2023-02-08T04:51:52.652Z,100120.81
2023-02-08T04:55:54.729Z,100113.13
2023-02-08T04:59:59.445Z,100120.81
2023-02-08T05:04:02.400Z,100125.19
2023-02-08T05:08:04.551Z,100129.75
2023-02-08T05:12:06.763Z,100130.31
2023-02-08T05:16:08.981Z,100136.47
2023-02-08T05:20:11.859Z,100132.91
2023-02-08T05:24:14.079Z,100134.84
2023-02-08T05:28:16.750Z,100122.06
2023-02-08T05:32:18.934Z,100125.88
2023-02-08T05:36:21.388Z,100122.75
2023-02-08T05:40:23.584Z,100128.63
2023-02-08T05:44:25.720Z,100124.78
2023-02-08T05:48:27.895Z,100137.56
2023-02-08T05:52:30.104Z,100139.22
2023-02-08T05:56:32.326Z,100136.75
2023-02-08T06:00:34.867Z,100143.47
2023-02-08T06:04:39.039Z,100142.50
2023-02-08T06:08:41.393Z,100152.53
2023-02-08T06:12:43.637Z,100155.97
2023-02-08T06:16:45.760Z,100151.28
2023-02-08T06:20:47.922Z,100154.88
2023-02-08T06:24:50.010Z,100161.88
2023-02-08T06:28:52.389Z,100158.28
2023-02-08T06:32:55.200Z,100149.50
2023-02-08T06:37:00.125Z,100156.38
2023-02-08T06:41:03.321Z,100156.78
2023-02-08T06:45:08.570Z,100153.16
2023-02-08T06:49:11.620Z,100153.59
2023-02-08T06:53:13.629Z,100153.75
2023-02-08T06:57:15.596Z,100153.44
2023-02-08T07:01:17.857Z,100155.75
2023-02-08T07:05:20.066Z,100151.25
2023-02-08T07:09:22.115Z,100149.63
2023-02-08T07:13:24.128Z,100140.22
2023-02-08T07:17:26.083Z,100146.31
2023-02-08T07:21:28.096Z,100142.41
2023-02-08T07:25:30.093Z,100137.59
2023-02-08T07:29:32.682Z,100133.78
2023-02-08T07:33:34.699Z,100131.91
2023-02-08T07:37:37.113Z,100123.16
2023-02-08T07:41:39.111Z,100116.59
2023-02-08T07:45:41.192Z,100120.41
2023-02-08T07:49:43.160Z,100117.47
2023-02-08T07:53:45.117Z,100121.03
2023-02-08T07:57:48.244Z,100112.97
2023-02-08T08:01:50.469Z,100120.16
2023-02-08T08:05:54.967Z,100122.88
2023-02-08T08:09:57.078Z,100116.09
2023-02-08T08:13:59.171Z,100115.91
2023-02-08T08:18:01.305Z,100119.44
2023-02-08T08:22:03.358Z,100125.00
2023-02-08T08:26:16.674Z,100123.78
2023-02-08T08:30:18.737Z,100115.50
2023-02-08T08:34:22.558Z,100129.56
2023-02-08T08:38:24.535Z,100128.75
2023-02-08T08:42:26.794Z,100123.28
2023-02-08T08:46:28.854Z,100118.94
2023-02-08T08:50:30.887Z,100120.72
2023-02-08T08:54:33.622Z,100122.44
2023-02-08T08:58:48.225Z,100128.72
2023-02-08T09:02:50.560Z,100126.38
2023-02-08T09:06:53.440Z,100121.81
2023-02-08T09:10:55.412Z,100126.59
2023-02-08T09:14:57.410Z,100126.34
2023-02-08T09:19:03.241Z,100131.34
2023-02-08T09:23:05.394Z,100122.06
2023-02-08T09:27:07.508Z,100121.16
2023-02-08T09:31:15.338Z,100132.69
2023-02-08T09:35:17.436Z,100122.69
2023-02-08T09:39:21.625Z,100123.06
2023-02-08T09:43:30.587Z,100117.25
2023-02-08T09:47:59.209Z,100116.78
2023-02-08T09:52:02.867Z,100111.34
2023-02-08T09:56:06.161Z,100107.41
2023-02-08T10:00:12.498Z,100119.16
2023-02-08T10:04:14.551Z,100117.31
2023-02-08T10:08:16.674Z,100108.63
2023-02-08T10:12:37.010Z,100117.69
2023-02-08T10:16:53.439Z,100109.25
2023-02-08T10:21:21.830Z,100116.19
2023-02-08T10:25:23.833Z,100111.72
2023-02-08T10:29:32.092Z,100108.38
2023-02-08T10:33:37.184Z,100106.31
2023-02-08T10:37:41.788Z,100102.41
2023-02-08T10:41:44.152Z,100099.59
2023-02-08T10:46:06.495Z,100101.28
2023-02-08T10:50:26.280Z,100095.16
2023-02-08T10:54:29.160Z,100103.25
2023-02-08T10:58:31.411Z,100088.25
2023-02-08T11:02:34.426Z,100093.22
2023-02-08T11:06:37.188Z,100092.06
2023-02-08T11:10:39.731Z,100098.94
2023-02-08T11:14:49.587Z,100093.09
2023-02-08T11:18:59.430Z,100102.09
2023-02-08T11:23:01.518Z,100079.41
2023-02-08T11:27:03.525Z,100081.31
2023-02-08T11:31:15.223Z,100067.50
2023-02-08T11:35:29.376Z,100060.75
2023-02-08T11:40:03.966Z,100064.13
2023-02-08T11:44:07.313Z,100044.84
2023-02-08T11:48:20.843Z,100067.13
2023-02-08T11:52:25.600Z,100040.56
2023-02-08T11:56:32.331Z,100043.63
2023-02-08T12:00:35.738Z,100030.50
2023-02-08T12:04:37.844Z,100029.59
2023-02-08T12:09:02.876Z,100030.97
2023-02-08T12:13:11.141Z,100013.47
2023-02-08T12:17:22.414Z,100013.41
2023-02-08T12:21:31.397Z,100004.16
2023-02-08T12:25:42.795Z,100020.78
2023-02-08T12:29:56.489Z,99998.28
2023-02-08T12:33:58.431Z,100008.34
2023-02-08T12:38:25.019Z,100007.63
2023-02-08T12:42:30.049Z,100007.97
2023-02-08T12:46:50.499Z,100010.28
2023-02-08T12:51:08.599Z,100018.41
2023-02-08T12:55:13.815Z,100011.63
2023-02-08T12:59:36.378Z,100009.44
2023-02-08T13:03:45.082Z,100019.56
2023-02-08T13:07:49.349Z,100015.50
2023-02-08T13:11:57.808Z,100012.97
2023-02-08T13:16:10.654Z,100010.22
2023-02-08T13:20:32.753Z,100009.44
2023-02-08T13:24:36.887Z,100022.41
2023-02-08T13:28:40.153Z,100023.81
2023-02-08T13:32:45.103Z,100030.81
2023-02-08T13:36:55.968Z,100034.50
2023-02-08T13:41:05.955Z,100029.44
2023-02-08T13:45:08.591Z,100042.22
2023-02-08T13:49:30.576Z,100061.06
2023-02-08T13:53:38.858Z,100050.13
2023-02-08T13:57:51.631Z,100066.72
2023-02-08T14:02:12.288Z,100062.75
2023-02-08T14:06:20.350Z,100063.22
2023-02-08T14:10:25.366Z,100065.78
2023-02-08T14:14:27.554Z,100062.50
2023-02-08T14:18:30.300Z,100067.09
2023-02-08T14:22:51.995Z,100064.38
2023-02-08T14:27:09.678Z,100063.72
2023-02-08T14:31:12.722Z,100069.63
2023-02-08T14:35:22.439Z,100072.13
2023-02-08T14:39:27.870Z,100068.91
2023-02-08T14:43:41.229Z,100075.44
2023-02-08T14:47:43.256Z,100084.44
2023-02-08T14:51:58.353Z,100083.63
2023-02-08T14:56:07.932Z,100074.78
2023-02-08T15:00:21.685Z,100077.31
2023-02-08T15:04:23.863Z,100074.41
2023-02-08T15:08:26.058Z,100083.91
2023-02-08T15:12:34.173Z,100091.97
2023-02-08T15:16:40.529Z,100089.44
2023-02-08T15:20:44.336Z,100089.75
2023-02-08T15:24:53.951Z,100085.13
2023-02-08T15:28:56.092Z,100083.69
2023-02-08T15:32:59.721Z,100083.28
2023-02-08T15:37:01.763Z,100092.91
2023-02-08T15:41:12.097Z,100093.31
2023-02-08T15:45:24.212Z,100102.44
2023-02-08T15:49:32.687Z,100096.97
2023-02-08T15:53:35.916Z,100114.91
2023-02-08T15:57:54.610Z,100113.91
2023-02-08T16:01:57.877Z,100113.38
2023-02-08T16:06:02.698Z,100108.44
2023-02-08T16:10:06.251Z,100119.09
2023-02-08T16:14:08.492Z,100114.38
2023-02-08T16:18:29.479Z,100114.72
2023-02-08T16:22:32.876Z,100116.56
2023-02-08T16:26:50.447Z,100112.81
2023-02-08T16:30:52.747Z,100116.31
2023-02-08T16:34:55.256Z,100113.69
2023-02-08T16:39:16.371Z,100112.56
2023-02-08T16:43:18.402Z,100111.13
2023-02-08T16:47:37.042Z,100113.78
2023-02-08T16:51:43.307Z,100119.38
2023-02-08T16:55:45.392Z,100113.00
2023-02-08T16:59:47.676Z,100121.56
2023-02-08T17:03:50.413Z,100125.00
2023-02-08T17:07:52.655Z,100117.47
2023-02-08T17:11:54.713Z,100130.25
2023-02-08T17:15:58.495Z,100117.63
2023-02-08T17:20:00.723Z,100134.22
2023-02-08T17:24:03.261Z,100134.22
2023-02-08T17:28:10.088Z,100124.72
2023-02-08T17:32:12.048Z,100120.78
2023-02-08T17:36:15.296Z,100114.22
2023-02-08T17:40:17.915Z,100138.38
2023-02-08T17:44:20.832Z,100126.06
2023-02-08T17:48:22.752Z,100134.75
2023-02-08T17:52:25.212Z,100143.47
2023-02-08T17:56:28.694Z,100150.22
2023-02-08T18:00:30.843Z,100156.94
2023-02-08T18:04:33.124Z,100171.56
2023-02-08T18:08:37.392Z,100164.16
2023-02-08T18:12:39.775Z,100176.31
2023-02-08T18:16:41.683Z,100176.66
2023-02-08T18:20:44.995Z,100175.97
2023-02-08T18:24:48.449Z,100179.44
2023-02-08T18:28:50.680Z,100182.72
2023-02-08T18:32:52.664Z,100177.78
2023-02-08T18:36:55.603Z,100192.69
2023-02-08T18:40:57.799Z,100188.09
2023-02-08T18:45:01.289Z,100179.56
2023-02-08T18:49:03.559Z,100187.13
2023-02-08T18:53:05.642Z,100189.78
2023-02-08T18:57:09.858Z,100187.94
2023-02-08T19:01:13.382Z,100185.19
2023-02-08T19:05:15.674Z,100183.53
2023-02-08T19:09:17.788Z,100175.34
2023-02-08T19:13:19.946Z,100167.44
2023-02-08T19:17:22.438Z,100170.25
2023-02-08T19:21:24.743Z,100151.72
2023-02-08T19:25:26.987Z,100162.19
2023-02-08T19:29:29.135Z,100161.72
2023-02-08T19:33:31.589Z,100175.81
2023-02-08T19:37:33.958Z,100159.41
2023-02-08T19:41:38.048Z,100171.56
2023-02-08T19:45:44.793Z,100172.69
2023-02-08T19:49:47.563Z,100172.34
2023-02-08T19:53:49.700Z,100175.00
2023-02-08T19:57:53.258Z,100175.63
2023-02-08T20:01:55.735Z,100176.59
2023-02-08T20:05:58.558Z,100179.22
2023-02-08T20:10:00.829Z,100172.66
2023-02-08T20:14:03.429Z,100186.13
2023-02-08T20:18:06.561Z,100175.09
2023-02-08T20:22:39.833Z,100186.81
2023-02-08T20:27:11.598Z,100195.75
2023-02-08T20:31:25.183Z,100186.19
2023-02-08T20:35:32.510Z,100191.56
2023-02-08T20:39:35.180Z,100181.88
2023-02-08T20:43:37.928Z,100188.75
2023-02-08T20:47:51.500Z,100174.56
2023-02-08T20:51:57.570Z,100173.34
2023-02-08T20:55:59.687Z,100170.03
2023-02-08T21:00:06.049Z,100172.78
2023-02-08T21:04:08.204Z,100169.31
2023-02-08T21:08:13.047Z,100164.00
2023-02-08T21:12:15.767Z,100158.41
2023-02-08T21:16:18.389Z,100154.81
2023-02-08T21:20:20.639Z,100150.72
2023-02-08T21:24:26.025Z,100151.81
2023-02-08T21:28:28.420Z,100149.94
2023-02-08T21:32:31.038Z,100141.34
2023-02-08T21:36:33.879Z,100154.19
2023-02-08T21:40:36.327Z,100151.22
2023-02-08T21:44:38.485Z,100144.31
2023-02-08T21:48:59.911Z,100151.34
2023-02-08T21:53:20.858Z,100148.53
2023-02-08T21:57:30.473Z,100158.72
2023-02-08T22:01:32.538Z,100156.22
2023-02-08T22:05:35.066Z,100160.06
2023-02-08T22:09:38.610Z,100156.03
2023-02-08T22:13:43.217Z,100156.00
2023-02-08T22:17:45.362Z,100152.81
2023-02-08T22:21:47.447Z,100146.78
2023-02-08T22:25:59.227Z,100148.19
2023-02-08T22:30:01.249Z,100144.16
2023-02-08T22:34:03.833Z,100147.91
2023-02-08T22:38:05.963Z,100152.47
2023-02-08T22:42:09.188Z,100150.06
2023-02-08T22:46:11.309Z,100152.34
2023-02-08T22:50:13.441Z,100142.22
2023-02-08T22:54:15.498Z,100151.84
2023-02-08T22:58:18.138Z,100152.94
2023-02-08T23:02:20.236Z,100156.25
2023-02-08T23:06:22.281Z,100150.28
2023-02-08T23:10:24.508Z,100154.09
2023-02-08T23:14:28.084Z,100152.47
2023-02-08T23:18:30.429Z,100157.06
2023-02-08T23:22:36.138Z,100146.97
2023-02-08T23:26:38.375Z,100144.69
2023-02-08T23:30:41.172Z,100142.59
2023-02-08T23:34:43.310Z,100140.69
2023-02-08T23:38:46.025Z,100132.81
2023-02-08T23:42:48.276Z,100143.94
2023-02-08T23:46:50.424Z,100147.75
2023-02-08T23:51:00.272Z,100147.53
2023-02-08T23:55:03.432Z,100158.03
2023-02-08T23:59:08.354Z,100152.81
